Bringhurst, Indiana
Current Conditions -  °F | °C
As of 10:55 AM on Thursday 27 Nov 2014 (Local Time) from KGGP Reporting Station
Overcast Overcast  
Wind Chill: -6°   Ceiling: 4200
Heat Index: -1°   Visibility: 7mi
Dew Point: -5°   Wind: 10mph
Humidity: 75%   Direction: 270°W
Pressure: 30.3"   Gusts: NA
Location:  40.53°N, 86.52°W
Report Text: KGGP 271555Z AUTO 27009KT 7SM OVC042 M01/M05 A3030 RMK AO2
Loading
Personal Weather Stations






























Interactive Weather Map New forecast layout! Learn more

10-Day Weather Forecast

Advertisements
Track Severe Weather on mobile